Palito Blanco, Texas
Current Conditions -  °F | °C
As of 5:53 AM on Tuesday 27 Jan 2015 (Local Time) from KALI Reporting Station
Clear Clear  
Wind Chill: 45°   Ceiling: Unl
Heat Index: 47°   Visibility: 10mi
Dew Point: 38°   Wind: 5mph
Humidity: 71%   Direction: 290°WNW
Pressure: 30.17"   Gusts: NA
Location:  27.6821°N, 98.1034°W
Report Text: KALI 271153Z AUTO 29004KT 10SM CLR 08/03 A3017 RMK AO2 SLP216 T00830033 10128 20078 55004
Loading
Personal Weather Stations






























Interactive Weather Map New forecast layout! Learn more

10-Day Weather Forecast

Advertisements
Track Severe Weather on mobile